createdAt,value
2023-11-24T00:00:24.021Z,7.60
2023-11-24T00:02:53.063Z,8.95
2023-11-24T00:05:22.784Z,8.20
2023-11-24T00:08:08.107Z,9.20
2023-11-24T00:10:38.402Z,8.30
2023-11-24T00:13:07.690Z,7.32
2023-11-24T00:15:38.197Z,8.32
2023-11-24T00:18:07.541Z,7.55
2023-11-24T00:20:36.650Z,6.65
2023-11-24T00:23:05.401Z,7.03
2023-11-24T00:25:34.313Z,6.35
2023-11-24T00:28:05.644Z,7.18
2023-11-24T00:30:34.727Z,6.40
2023-11-24T00:33:03.846Z,6.70
2023-11-24T00:35:32.513Z,6.90
2023-11-24T00:38:01.517Z,6.25
2023-11-24T00:40:30.271Z,7.43
2023-11-24T00:43:00.929Z,7.03
2023-11-24T00:45:31.391Z,6.40
2023-11-24T00:48:01.230Z,5.90
2023-11-24T00:50:29.939Z,5.85
2023-11-24T00:52:59.740Z,6.15
2023-11-24T00:55:28.864Z,4.80
2023-11-24T00:57:57.503Z,4.43
2023-11-24T01:00:26.239Z,5.72
2023-11-24T01:02:56.679Z,6.65
2023-11-24T01:05:25.324Z,4.65
2023-11-24T01:07:53.956Z,4.28
2023-11-24T01:10:32.158Z,6.03
2023-11-24T01:13:00.806Z,5.03
2023-11-24T01:15:29.645Z,4.43
2023-11-24T01:18:00.418Z,3.95
2023-11-24T01:20:29.312Z,3.80
2023-11-24T01:22:57.888Z,4.43
2023-11-24T01:25:26.962Z,3.17
2023-11-24T01:27:55.638Z,3.97
2023-11-24T01:30:24.379Z,3.65
2023-11-24T01:32:53.367Z,3.38
2023-11-24T01:35:23.523Z,3.65
2023-11-24T01:37:52.715Z,4.05
2023-11-24T01:40:21.434Z,3.35
2023-11-24T01:42:50.412Z,3.10
2023-11-24T01:45:19.259Z,4.80
2023-11-24T01:47:48.461Z,3.85
2023-11-24T01:50:17.625Z,5.07
2023-11-24T01:52:49.063Z,4.32
2023-11-24T01:55:18.075Z,3.80
2023-11-24T01:57:47.305Z,6.75
2023-11-24T02:00:16.891Z,4.82
2023-11-24T02:02:45.972Z,3.97
2023-11-24T02:05:16.107Z,5.43
2023-11-24T02:07:45.100Z,2.63
2023-11-24T02:10:30.169Z,3.22
2023-11-24T02:12:59.017Z,4.78
2023-11-24T02:15:27.881Z,6.88
2023-11-24T02:17:57.037Z,5.65
2023-11-24T02:20:28.603Z,4.30
2023-11-24T02:22:58.762Z,5.45
2023-11-24T02:25:27.653Z,5.68
2023-11-24T02:27:56.941Z,8.05
2023-11-24T02:30:26.052Z,6.13
2023-11-24T02:32:54.878Z,6.28
